sensor_id;sensor_type;location;lat;lon;timestamp;pressure;altitude;pressure_sealevel;temperature;humidity
54308;BME280;40208;39.778;2.710;2023-12-07T00:01:48;101663.09;;;6.50;100.00
54308;BME280;40208;39.778;2.710;2023-12-07T00:04:32;101696.63;;;6.43;100.00
54308;BME280;40208;39.778;2.710;2023-12-07T00:07:17;101855.50;;;7.30;100.00
54308;BME280;40208;39.778;2.710;2023-12-07T00:10:02;101688.69;;;6.45;100.00
54308;BME280;40208;39.778;2.710;2023-12-07T00:12:48;101785.81;;;6.78;100.00
54308;BME280;40208;39.778;2.710;2023-12-07T00:15:33;101869.59;;;7.28;100.00
54308;BME280;40208;39.778;2.710;2023-12-07T00:18:18;101696.00;;;6.21;100.00
54308;BME280;40208;39.778;2.710;2023-12-07T00:21:04;101816.00;;;6.56;100.00
54308;BME280;40208;39.778;2.710;2023-12-07T00:23:49;101880.97;;;7.34;100.00
54308;BME280;40208;39.778;2.710;2023-12-07T00:26:34;101875.38;;;7.54;100.00
54308;BME280;40208;39.778;2.710;2023-12-07T00:29:19;101789.53;;;7.26;100.00
54308;BME280;40208;39.778;2.710;2023-12-07T00:32:04;101668.13;;;6.70;100.00
54308;BME280;40208;39.778;2.710;2023-12-07T00:34:49;101838.97;;;7.73;100.00
54308;BME280;40208;39.778;2.710;2023-12-07T00:37:34;101658.94;;;6.35;100.00
54308;BME280;40208;39.778;2.710;2023-12-07T00:40:19;101848.22;;;7.46;100.00
54308;BME280;40208;39.778;2.710;2023-12-07T00:43:04;101776.38;;;7.24;100.00
54308;BME280;40208;39.778;2.710;2023-12-07T00:45:49;101761.63;;;7.11;100.00
54308;BME280;40208;39.778;2.710;2023-12-07T00:48:35;101757.84;;;7.27;100.00
54308;BME280;40208;39.778;2.710;2023-12-07T00:51:20;101714.56;;;6.78;100.00
54308;BME280;40208;39.778;2.710;2023-12-07T00:54:04;101829.59;;;7.55;100.00
54308;BME280;40208;39.778;2.710;2023-12-07T00:56:49;101823.00;;;7.27;100.00
54308;BME280;40208;39.778;2.710;2023-12-07T00:59:34;101772.16;;;7.12;100.00
54308;BME280;40208;39.778;2.710;2023-12-07T01:02:19;101830.00;;;7.29;100.00
54308;BME280;40208;39.778;2.710;2023-12-07T01:05:04;101832.50;;;7.37;100.00
54308;BME280;40208;39.778;2.710;2023-12-07T01:07:50;101852.50;;;6.91;100.00
54308;BME280;40208;39.778;2.710;2023-12-07T01:10:35;101854.13;;;7.03;100.00
54308;BME280;40208;39.778;2.710;2023-12-07T01:13:20;101664.66;;;6.00;100.00
54308;BME280;40208;39.778;2.710;2023-12-07T01:16:05;101860.44;;;6.90;100.00
54308;BME280;40208;39.778;2.710;2023-12-07T01:18:49;101805.00;;;6.93;100.00
54308;BME280;40208;39.778;2.710;2023-12-07T01:21:34;101840.56;;;7.28;100.00
54308;BME280;40208;39.778;2.710;2023-12-07T01:24:19;101761.03;;;6.90;100.00
54308;BME280;40208;39.778;2.710;2023-12-07T01:27:04;101867.28;;;7.67;100.00
54308;BME280;40208;39.778;2.710;2023-12-07T01:29:49;101680.19;;;6.21;100.00
54308;BME280;40208;39.778;2.710;2023-12-07T01:32:33;101890.84;;;7.18;100.00
54308;BME280;40208;39.778;2.710;2023-12-07T01:35:19;101883.91;;;7.14;100.00
54308;BME280;40208;39.778;2.710;2023-12-07T01:38:04;101876.66;;;7.29;100.00
54308;BME280;40208;39.778;2.710;2023-12-07T01:40:49;101876.19;;;6.96;100.00
54308;BME280;40208;39.778;2.710;2023-12-07T01:43:34;101890.91;;;7.14;100.00
54308;BME280;40208;39.778;2.710;2023-12-07T01:46:19;101885.84;;;6.97;100.00
54308;BME280;40208;39.778;2.710;2023-12-07T01:49:04;101832.16;;;7.01;100.00
54308;BME280;40208;39.778;2.710;2023-12-07T01:51:49;101901.53;;;7.11;100.00
54308;BME280;40208;39.778;2.710;2023-12-07T01:54:34;101898.22;;;6.93;100.00
54308;BME280;40208;39.778;2.710;2023-12-07T01:57:19;101898.66;;;7.28;100.00
54308;BME280;40208;39.778;2.710;2023-12-07T02:00:05;101702.66;;;5.74;100.00
54308;BME280;40208;39.778;2.710;2023-12-07T02:02:51;101896.63;;;6.78;100.00
54308;BME280;40208;39.778;2.710;2023-12-07T02:05:36;101896.59;;;6.82;100.00
54308;BME280;40208;39.778;2.710;2023-12-07T02:08:22;101863.16;;;6.84;100.00
54308;BME280;40208;39.778;2.710;2023-12-07T02:11:08;101710.84;;;5.45;100.00
54308;BME280;40208;39.778;2.710;2023-12-07T02:13:54;101708.50;;;5.11;100.00
54308;BME280;40208;39.778;2.710;2023-12-07T02:16:45;101730.66;;;5.81;100.00
54308;BME280;40208;39.778;2.710;2023-12-07T02:19:55;101890.84;;;7.20;100.00
54308;BME280;40208;39.778;2.710;2023-12-07T02:22:54;101884.47;;;6.65;100.00
54308;BME280;40208;39.778;2.710;2023-12-07T02:26:02;101867.06;;;6.49;100.00
54308;BME280;40208;39.778;2.710;2023-12-07T02:28:48;101780.63;;;5.92;100.00
54308;BME280;40208;39.778;2.710;2023-12-07T02:31:33;101813.97;;;5.99;100.00
54308;BME280;40208;39.778;2.710;2023-12-07T02:34:18;101859.38;;;6.27;100.00
54308;BME280;40208;39.778;2.710;2023-12-07T02:37:04;101857.75;;;6.17;100.00
54308;BME280;40208;39.778;2.710;2023-12-07T02:39:51;101852.25;;;6.39;100.00
54308;BME280;40208;39.778;2.710;2023-12-07T02:42:39;101805.22;;;5.97;100.00
54308;BME280;40208;39.778;2.710;2023-12-07T02:45:25;101755.16;;;5.92;100.00
54308;BME280;40208;39.778;2.710;2023-12-07T02:48:11;101765.63;;;6.02;100.00
54308;BME280;40208;39.778;2.710;2023-12-07T02:50:56;101850.34;;;6.53;100.00
54308;BME280;40208;39.778;2.710;2023-12-07T02:53:41;101780.41;;;6.18;100.00
54308;BME280;40208;39.778;2.710;2023-12-07T02:56:26;101859.88;;;6.65;100.00
54308;BME280;40208;39.778;2.710;2023-12-07T02:59:11;101658.31;;;5.34;100.00
54308;BME280;40208;39.778;2.710;2023-12-07T03:01:55;101841.88;;;6.20;100.00
54308;BME280;40208;39.778;2.710;2023-12-07T03:04:40;101650.72;;;4.96;100.00
54308;BME280;40208;39.778;2.710;2023-12-07T03:07:26;101723.22;;;5.37;100.00
54308;BME280;40208;39.778;2.710;2023-12-07T03:10:11;101830.25;;;6.38;100.00
54308;BME280;40208;39.778;2.710;2023-12-07T03:12:55;101774.31;;;6.13;100.00
54308;BME280;40208;39.778;2.710;2023-12-07T03:15:40;101841.31;;;6.72;100.00
54308;BME280;40208;39.778;2.710;2023-12-07T03:18:25;101844.16;;;6.54;100.00
54308;BME280;40208;39.778;2.710;2023-12-07T03:21:09;101620.13;;;4.87;100.00
54308;BME280;40208;39.778;2.710;2023-12-07T03:23:54;101845.31;;;6.28;100.00
54308;BME280;40208;39.778;2.710;2023-12-07T03:26:39;101670.59;;;5.32;100.00
54308;BME280;40208;39.778;2.710;2023-12-07T03:29:24;101798.22;;;5.88;100.00
54308;BME280;40208;39.778;2.710;2023-12-07T03:32:09;101848.06;;;6.16;100.00
54308;BME280;40208;39.778;2.710;2023-12-07T03:34:54;101772.13;;;5.65;100.00
54308;BME280;40208;39.778;2.710;2023-12-07T03:37:39;101768.31;;;5.95;100.00
54308;BME280;40208;39.778;2.710;2023-12-07T03:40:24;101808.13;;;6.53;100.00
54308;BME280;40208;39.778;2.710;2023-12-07T03:43:08;101851.41;;;6.33;100.00
54308;BME280;40208;39.778;2.710;2023-12-07T03:45:54;101851.44;;;6.32;100.00
54308;BME280;40208;39.778;2.710;2023-12-07T03:48:39;101853.84;;;6.52;100.00
54308;BME280;40208;39.778;2.710;2023-12-07T03:51:24;101754.69;;;5.49;100.00
54308;BME280;40208;39.778;2.710;2023-12-07T03:54:09;101836.19;;;5.66;100.00
54308;BME280;40208;39.778;2.710;2023-12-07T03:56:54;101846.78;;;5.57;100.00
54308;BME280;40208;39.778;2.710;2023-12-07T03:59:39;101761.88;;;5.28;100.00
54308;BME280;40208;39.778;2.710;2023-12-07T04:02:24;101768.06;;;5.21;100.00
54308;BME280;40208;39.778;2.710;2023-12-07T04:05:09;101854.31;;;6.06;100.00
54308;BME280;40208;39.778;2.710;2023-12-07T04:07:53;101857.09;;;5.87;100.00
54308;BME280;40208;39.778;2.710;2023-12-07T04:10:38;101816.25;;;5.34;100.00
54308;BME280;40208;39.778;2.710;2023-12-07T04:13:24;101537.72;;;3.57;100.00
54308;BME280;40208;39.778;2.710;2023-12-07T04:16:10;101587.47;;;3.81;100.00
54308;BME280;40208;39.778;2.710;2023-12-07T04:18:55;101866.88;;;5.68;100.00
54308;BME280;40208;39.778;2.710;2023-12-07T04:21:40;101699.06;;;4.81;100.00
54308;BME280;40208;39.778;2.710;2023-12-07T04:24:25;101870.00;;;6.18;100.00
54308;BME280;40208;39.778;2.710;2023-12-07T04:27:10;101885.00;;;6.11;100.00
54308;BME280;40208;39.778;2.710;2023-12-07T04:29:54;101877.75;;;6.36;100.00
54308;BME280;40208;39.778;2.710;2023-12-07T04:32:39;101851.16;;;6.56;100.00
54308;BME280;40208;39.778;2.710;2023-12-07T04:35:24;101884.09;;;6.14;100.00
54308;BME280;40208;39.778;2.710;2023-12-07T04:38:09;101623.78;;;4.64;100.00
54308;BME280;40208;39.778;2.710;2023-12-07T04:40:54;101685.53;;;5.30;100.00
54308;BME280;40208;39.778;2.710;2023-12-07T04:43:40;101807.13;;;5.75;100.00
54308;BME280;40208;39.778;2.710;2023-12-07T04:46:25;101689.78;;;5.43;100.00
54308;BME280;40208;39.778;2.710;2023-12-07T04:49:10;101668.59;;;5.59;100.00
54308;BME280;40208;39.778;2.710;2023-12-07T04:51:54;101615.28;;;5.37;100.00
54308;BME280;40208;39.778;2.710;2023-12-07T04:54:39;101853.06;;;6.41;100.00
54308;BME280;40208;39.778;2.710;2023-12-07T04:57:24;101586.91;;;4.74;100.00
54308;BME280;40208;39.778;2.710;2023-12-07T05:00:09;101856.09;;;6.04;100.00
54308;BME280;40208;39.778;2.710;2023-12-07T05:02:55;101773.94;;;5.52;100.00
54308;BME280;40208;39.778;2.710;2023-12-07T05:05:39;101605.09;;;4.98;100.00
54308;BME280;40208;39.778;2.710;2023-12-07T05:08:24;101861.97;;;6.30;100.00
54308;BME280;40208;39.778;2.710;2023-12-07T05:11:09;101814.94;;;5.89;100.00
54308;BME280;40208;39.778;2.710;2023-12-07T05:13:54;101844.81;;;5.85;100.00
54308;BME280;40208;39.778;2.710;2023-12-07T05:16:40;101580.09;;;4.48;100.00
54308;BME280;40208;39.778;2.710;2023-12-07T05:19:25;101786.16;;;5.64;100.00
54308;BME280;40208;39.778;2.710;2023-12-07T05:22:10;101680.09;;;5.48;100.00
54308;BME280;40208;39.778;2.710;2023-12-07T05:24:55;101846.38;;;6.10;100.00
54308;BME280;40208;39.778;2.710;2023-12-07T05:27:40;101848.19;;;6.04;100.00
54308;BME280;40208;39.778;2.710;2023-12-07T05:30:25;101758.19;;;5.49;100.00
54308;BME280;40208;39.778;2.710;2023-12-07T05:33:10;101812.91;;;6.19;100.00
54308;BME280;40208;39.778;2.710;2023-12-07T05:35:56;101776.84;;;6.22;100.00
54308;BME280;40208;39.778;2.710;2023-12-07T05:38:40;101852.56;;;6.85;100.00
54308;BME280;40208;39.778;2.710;2023-12-07T05:41:25;101666.94;;;5.45;100.00
54308;BME280;40208;39.778;2.710;2023-12-07T05:44:10;101847.97;;;6.24;100.00
54308;BME280;40208;39.778;2.710;2023-12-07T05:46:55;101810.56;;;5.85;100.00
54308;BME280;40208;39.778;2.710;2023-12-07T05:49:39;101775.00;;;5.35;100.00
54308;BME280;40208;39.778;2.710;2023-12-07T05:52:24;101836.72;;;6.09;100.00
54308;BME280;40208;39.778;2.710;2023-12-07T05:55:09;101671.50;;;5.26;100.00
54308;BME280;40208;39.778;2.710;2023-12-07T05:57:54;101842.06;;;6.02;100.00
54308;BME280;40208;39.778;2.710;2023-12-07T06:00:39;101844.69;;;6.02;100.00
54308;BME280;40208;39.778;2.710;2023-12-07T06:03:24;101848.72;;;6.38;100.00
54308;BME280;40208;39.778;2.710;2023-12-07T06:06:12;101858.63;;;6.14;100.00
54308;BME280;40208;39.778;2.710;2023-12-07T06:08:57;101856.84;;;6.20;100.00
54308;BME280;40208;39.778;2.710;2023-12-07T06:11:42;101852.47;;;6.17;100.00
54308;BME280;40208;39.778;2.710;2023-12-07T06:14:27;101851.53;;;6.21;100.00
54308;BME280;40208;39.778;2.710;2023-12-07T06:17:12;101736.50;;;5.17;100.00
54308;BME280;40208;39.778;2.710;2023-12-07T06:19:57;101532.28;;;3.91;100.00
54308;BME280;40208;39.778;2.710;2023-12-07T06:22:42;101844.78;;;5.91;100.00
54308;BME280;40208;39.778;2.710;2023-12-07T06:25:27;101804.22;;;6.09;100.00
54308;BME280;40208;39.778;2.710;2023-12-07T06:28:12;101725.94;;;5.21;100.00
54308;BME280;40208;39.778;2.710;2023-12-07T06:30:57;101838.75;;;5.77;100.00
54308;BME280;40208;39.778;2.710;2023-12-07T06:33:41;101564.56;;;4.14;100.00
54308;BME280;40208;39.778;2.710;2023-12-07T06:36:27;101788.03;;;5.50;100.00
54308;BME280;40208;39.778;2.710;2023-12-07T06:39:13;101739.88;;;5.39;100.00
54308;BME280;40208;39.778;2.710;2023-12-07T06:41:58;101810.34;;;6.11;100.00
54308;BME280;40208;39.778;2.710;2023-12-07T06:44:48;101848.56;;;6.55;100.00
54308;BME280;40208;39.778;2.710;2023-12-07T06:47:39;101774.97;;;6.30;100.00
54308;BME280;40208;39.778;2.710;2023-12-07T06:50:23;101864.19;;;6.69;100.00
54308;BME280;40208;39.778;2.710;2023-12-07T06:53:08;101805.16;;;6.02;100.00
54308;BME280;40208;39.778;2.710;2023-12-07T06:55:53;101875.84;;;6.49;100.00
54308;BME280;40208;39.778;2.710;2023-12-07T06:58:38;101765.06;;;5.67;100.00
54308;BME280;40208;39.778;2.710;2023-12-07T07:01:23;101876.72;;;6.50;100.00
54308;BME280;40208;39.778;2.710;2023-12-07T07:04:07;101758.03;;;5.68;100.00
54308;BME280;40208;39.778;2.710;2023-12-07T07:06:53;101804.28;;;6.03;100.00
54308;BME280;40208;39.778;2.710;2023-12-07T07:09:38;101819.34;;;5.85;100.00
54308;BME280;40208;39.778;2.710;2023-12-07T07:12:23;101884.88;;;6.25;100.00
54308;BME280;40208;39.778;2.710;2023-12-07T07:15:08;101889.16;;;6.39;100.00
54308;BME280;40208;39.778;2.710;2023-12-07T07:17:53;101893.53;;;6.38;100.00
54308;BME280;40208;39.778;2.710;2023-12-07T07:20:38;101825.16;;;6.23;100.00
54308;BME280;40208;39.778;2.710;2023-12-07T07:23:24;101861.53;;;6.72;100.00
54308;BME280;40208;39.778;2.710;2023-12-07T07:26:09;101860.69;;;6.68;100.00
54308;BME280;40208;39.778;2.710;2023-12-07T07:28:54;101761.91;;;6.23;100.00
54308;BME280;40208;39.778;2.710;2023-12-07T07:31:48;101871.94;;;6.84;100.00
54308;BME280;40208;39.778;2.710;2023-12-07T07:34:33;101767.78;;;6.45;100.00
54308;BME280;40208;39.778;2.710;2023-12-07T07:37:18;101856.06;;;6.87;100.00
54308;BME280;40208;39.778;2.710;2023-12-07T07:40:04;101854.34;;;6.85;100.00
54308;BME280;40208;39.778;2.710;2023-12-07T07:42:52;101802.66;;;6.68;100.00
54308;BME280;40208;39.778;2.710;2023-12-07T07:45:37;101664.31;;;5.48;100.00
54308;BME280;40208;39.778;2.710;2023-12-07T07:48:21;101800.13;;;6.59;100.00
54308;BME280;40208;39.778;2.710;2023-12-07T07:51:06;101838.97;;;6.45;100.00
54308;BME280;40208;39.778;2.710;2023-12-07T07:53:51;101738.66;;;5.77;100.00
54308;BME280;40208;39.778;2.710;2023-12-07T07:56:36;101880.88;;;6.74;100.00
54308;BME280;40208;39.778;2.710;2023-12-07T07:59:21;101868.59;;;6.70;100.00
54308;BME280;40208;39.778;2.710;2023-12-07T08:02:06;101879.06;;;6.76;100.00
54308;BME280;40208;39.778;2.710;2023-12-07T08:04:50;101881.09;;;6.52;100.00
54308;BME280;40208;39.778;2.710;2023-12-07T08:07:36;101857.50;;;6.40;100.00
54308;BME280;40208;39.778;2.710;2023-12-07T08:10:20;101878.25;;;6.72;100.00
54308;BME280;40208;39.778;2.710;2023-12-07T08:13:05;101873.06;;;6.62;100.00
54308;BME280;40208;39.778;2.710;2023-12-07T08:15:52;101715.81;;;5.74;100.00
54308;BME280;40208;39.778;2.710;2023-12-07T08:18:37;101790.09;;;6.14;100.00
54308;BME280;40208;39.778;2.710;2023-12-07T08:21:24;101886.91;;;6.82;100.00
54308;BME280;40208;39.778;2.710;2023-12-07T08:24:10;101880.94;;;6.66;100.00
54308;BME280;40208;39.778;2.710;2023-12-07T08:26:57;101879.97;;;6.75;100.00
54308;BME280;40208;39.778;2.710;2023-12-07T08:29:42;101872.13;;;6.69;100.00
54308;BME280;40208;39.778;2.710;2023-12-07T08:32:27;101829.94;;;6.67;100.00
54308;BME280;40208;39.778;2.710;2023-12-07T08:35:12;101882.25;;;7.04;100.00
54308;BME280;40208;39.778;2.710;2023-12-07T08:37:57;101807.72;;;6.87;100.00
54308;BME280;40208;39.778;2.710;2023-12-07T08:40:42;101801.22;;;7.11;100.00
54308;BME280;40208;39.778;2.710;2023-12-07T08:43:26;101882.97;;;7.76;100.00
54308;BME280;40208;39.778;2.710;2023-12-07T08:46:12;101858.19;;;7.83;100.00
54308;BME280;40208;39.778;2.710;2023-12-07T08:48:57;101798.41;;;7.77;100.00
54308;BME280;40208;39.778;2.710;2023-12-07T08:51:42;101730.22;;;7.48;100.00
54308;BME280;40208;39.778;2.710;2023-12-07T08:54:27;101747.69;;;8.05;100.00
54308;BME280;40208;39.778;2.710;2023-12-07T08:57:12;101819.09;;;8.52;100.00
54308;BME280;40208;39.778;2.710;2023-12-07T08:59:57;101900.53;;;9.24;100.00
54308;BME280;40208;39.778;2.710;2023-12-07T09:02:43;101858.63;;;9.42;100.00
54308;BME280;40208;39.778;2.710;2023-12-07T09:05:27;101878.00;;;9.83;100.00
54308;BME280;40208;39.778;2.710;2023-12-07T09:08:12;101879.09;;;10.10;100.00
54308;BME280;40208;39.778;2.710;2023-12-07T09:10:57;101887.75;;;10.51;100.00
54308;BME280;40208;39.778;2.710;2023-12-07T09:13:42;101889.63;;;10.80;100.00
54308;BME280;40208;39.778;2.710;2023-12-07T09:16:27;101879.34;;;10.99;100.00
54308;BME280;40208;39.778;2.710;2023-12-07T09:19:12;101890.16;;;11.22;100.00
54308;BME280;40208;39.778;2.710;2023-12-07T09:22:00;101784.75;;;10.93;100.00
54308;BME280;40208;39.778;2.710;2023-12-07T09:24:46;101840.69;;;11.46;100.00
54308;BME280;40208;39.778;2.710;2023-12-07T09:27:30;101871.16;;;11.91;100.00
54308;BME280;40208;39.778;2.710;2023-12-07T09:30:17;101875.00;;;12.09;100.00
54308;BME280;40208;39.778;2.710;2023-12-07T09:33:02;101808.50;;;11.82;100.00
54308;BME280;40208;39.778;2.710;2023-12-07T09:35:47;101880.25;;;12.37;100.00
54308;BME280;40208;39.778;2.710;2023-12-07T09:38:35;101868.25;;;12.50;100.00
54308;BME280;40208;39.778;2.710;2023-12-07T09:41:22;101864.16;;;12.65;100.00
54308;BME280;40208;39.778;2.710;2023-12-07T09:44:08;101845.34;;;12.70;100.00
54308;BME280;40208;39.778;2.710;2023-12-07T09:46:53;101789.47;;;12.45;100.00
54308;BME280;40208;39.778;2.710;2023-12-07T09:49:39;101607.66;;;11.45;100.00
54308;BME280;40208;39.778;2.710;2023-12-07T09:52:24;101842.63;;;12.95;100.00
54308;BME280;40208;39.778;2.710;2023-12-07T09:55:09;101846.34;;;13.14;100.00
54308;BME280;40208;39.778;2.710;2023-12-07T09:57:54;101842.69;;;13.17;100.00
54308;BME280;40208;39.778;2.710;2023-12-07T10:00:42;101739.69;;;12.70;100.00
54308;BME280;40208;39.778;2.710;2023-12-07T10:03:27;101858.91;;;13.56;100.00
54308;BME280;40208;39.778;2.710;2023-12-07T10:06:13;101870.22;;;13.63;100.00
54308;BME280;40208;39.778;2.710;2023-12-07T10:09:03;101715.63;;;12.96;100.00
54308;BME280;40208;39.778;2.710;2023-12-07T10:11:48;101804.09;;;13.49;100.00
54308;BME280;40208;39.778;2.710;2023-12-07T10:14:33;101792.75;;;13.44;100.00
54308;BME280;40208;39.778;2.710;2023-12-07T10:17:18;101860.09;;;13.93;100.00
54308;BME280;40208;39.778;2.710;2023-12-07T10:20:09;101845.66;;;13.97;100.00
54308;BME280;40208;39.778;2.710;2023-12-07T10:23:07;101834.06;;;13.98;100.00
54308;BME280;40208;39.778;2.710;2023-12-07T10:25:52;101769.84;;;13.61;100.00
54308;BME280;40208;39.778;2.710;2023-12-07T10:28:39;101663.84;;;13.01;100.00
54308;BME280;40208;39.778;2.710;2023-12-07T10:31:23;101653.91;;;13.05;100.00
54308;BME280;40208;39.778;2.710;2023-12-07T10:34:09;101772.53;;;13.81;100.00
54308;BME280;40208;39.778;2.710;2023-12-07T10:36:54;101629.84;;;13.08;100.00
54308;BME280;40208;39.778;2.710;2023-12-07T10:39:40;101818.31;;;14.33;100.00
54308;BME280;40208;39.778;2.710;2023-12-07T10:42:25;101816.31;;;14.38;100.00
54308;BME280;40208;39.778;2.710;2023-12-07T10:45:12;101645.81;;;13.50;100.00
54308;BME280;40208;39.778;2.710;2023-12-07T10:48:06;101815.63;;;14.54;100.00
54308;BME280;40208;39.778;2.710;2023-12-07T10:50:53;101773.59;;;14.38;100.00
54308;BME280;40208;39.778;2.710;2023-12-07T10:53:41;101789.09;;;14.70;100.00
54308;BME280;40208;39.778;2.710;2023-12-07T10:56:35;101610.84;;;13.77;100.00
54308;BME280;40208;39.778;2.710;2023-12-07T10:59:24;101767.19;;;14.80;100.00
54308;BME280;40208;39.778;2.710;2023-12-07T11:02:10;101749.94;;;14.88;100.00
54308;BME280;40208;39.778;2.710;2023-12-07T11:04:57;101684.75;;;14.54;100.00
54308;BME280;40208;39.778;2.710;2023-12-07T11:10:45;101723.44;;;15.02;100.00
54308;BME280;40208;39.778;2.710;2023-12-07T11:13:35;101716.97;;;15.06;100.00
54308;BME280;40208;39.778;2.710;2023-12-07T11:16:37;101707.13;;;15.06;100.00
54308;BME280;40208;39.778;2.710;2023-12-07T11:22:27;101657.97;;;14.92;100.00
54308;BME280;40208;39.778;2.710;2023-12-07T11:25:12;101528.38;;;14.28;100.00
54308;BME280;40208;39.778;2.710;2023-12-07T11:28:04;101695.94;;;15.35;100.00
54308;BME280;40208;39.778;2.710;2023-12-07T11:30:50;101641.59;;;15.17;100.00
54308;BME280;40208;39.778;2.710;2023-12-07T11:33:38;101572.53;;;14.90;100.00
54308;BME280;40208;39.778;2.710;2023-12-07T11:36:24;101542.03;;;14.77;100.00
54308;BME280;40208;39.778;2.710;2023-12-07T11:42:06;101512.25;;;14.67;100.00
54308;BME280;40208;39.778;2.710;2023-12-07T11:44:51;101647.94;;;15.66;100.00
54308;BME280;40208;39.778;2.710;2023-12-07T11:47:37;101687.13;;;16.02;100.00
54308;BME280;40208;39.778;2.710;2023-12-07T11:50:22;101546.31;;;15.32;100.00
54308;BME280;40208;39.778;2.710;2023-12-07T11:53:07;101657.44;;;15.89;100.00
54308;BME280;40208;39.778;2.710;2023-12-07T11:55:56;101556.97;;;15.49;100.00
54308;BME280;40208;39.778;2.710;2023-12-07T11:58:45;101576.47;;;15.68;100.00
54308;BME280;40208;39.778;2.710;2023-12-07T12:01:31;101600.88;;;15.80;100.00
54308;BME280;40208;39.778;2.710;2023-12-07T12:04:16;101488.09;;;15.03;100.00
54308;BME280;40208;39.778;2.710;2023-12-07T12:07:01;101511.72;;;15.29;100.00
54308;BME280;40208;39.778;2.710;2023-12-07T12:09:46;101656.03;;;16.16;100.00
54308;BME280;40208;39.778;2.710;2023-12-07T12:12:34;101388.78;;;14.60;100.00
54308;BME280;40208;39.778;2.710;2023-12-07T12:15:19;101638.34;;;16.29;100.00
54308;BME280;40208;39.778;2.710;2023-12-07T12:18:04;101654.69;;;16.40;100.00
54308;BME280;40208;39.778;2.710;2023-12-07T12:20:50;101635.16;;;16.38;100.00
54308;BME280;40208;39.778;2.710;2023-12-07T12:23:36;101577.75;;;16.10;100.00
54308;BME280;40208;39.778;2.710;2023-12-07T12:26:21;101618.81;;;16.27;100.00
54308;BME280;40208;39.778;2.710;2023-12-07T12:29:06;101637.59;;;16.43;100.00
54308;BME280;40208;39.778;2.710;2023-12-07T12:31:53;101522.63;;;15.75;100.00
54308;BME280;40208;39.778;2.710;2023-12-07T12:34:38;101562.13;;;16.03;100.00
54308;BME280;40208;39.778;2.710;2023-12-07T12:37:23;101315.94;;;14.39;100.00
54308;BME280;40208;39.778;2.710;2023-12-07T12:40:12;101506.00;;;15.52;100.00
54308;BME280;40208;39.778;2.710;2023-12-07T12:43:00;101616.28;;;16.08;100.00
54308;BME280;40208;39.778;2.710;2023-12-07T12:45:45;101597.81;;;16.19;100.00
54308;BME280;40208;39.778;2.710;2023-12-07T12:48:32;101526.19;;;15.91;100.00
54308;BME280;40208;39.778;2.710;2023-12-07T12:51:17;101462.41;;;15.50;100.00
54308;BME280;40208;39.778;2.710;2023-12-07T12:54:02;101575.34;;;16.22;100.00
54308;BME280;40208;39.778;2.710;2023-12-07T12:56:47;101414.06;;;15.21;100.00
54308;BME280;40208;39.778;2.710;2023-12-07T12:59:32;101571.81;;;16.21;100.00
54308;BME280;40208;39.778;2.710;2023-12-07T13:02:17;101451.53;;;15.53;100.00
54308;BME280;40208;39.778;2.710;2023-12-07T13:05:03;101499.50;;;15.89;100.00
54308;BME280;40208;39.778;2.710;2023-12-07T13:07:49;101548.75;;;16.19;100.00
54308;BME280;40208;39.778;2.710;2023-12-07T13:10:33;101558.25;;;16.24;100.00
54308;BME280;40208;39.778;2.710;2023-12-07T13:13:18;101523.09;;;16.15;100.00
54308;BME280;40208;39.778;2.710;2023-12-07T13:16:03;101565.59;;;16.37;100.00
54308;BME280;40208;39.778;2.710;2023-12-07T13:18:49;101565.13;;;16.44;100.00
54308;BME280;40208;39.778;2.710;2023-12-07T13:21:34;101366.09;;;15.34;100.00
54308;BME280;40208;39.778;2.710;2023-12-07T13:24:19;101536.75;;;16.26;100.00
54308;BME280;40208;39.778;2.710;2023-12-07T13:27:04;101535.97;;;16.24;100.00
54308;BME280;40208;39.778;2.710;2023-12-07T13:29:49;101544.59;;;16.29;100.00
54308;BME280;40208;39.778;2.710;2023-12-07T13:32:34;101506.25;;;16.13;100.00
54308;BME280;40208;39.778;2.710;2023-12-07T13:35:21;101538.19;;;16.16;100.00
54308;BME280;40208;39.778;2.710;2023-12-07T13:38:07;101540.13;;;16.14;100.00
54308;BME280;40208;39.778;2.710;2023-12-07T13:41:01;101550.19;;;16.08;100.00
54308;BME280;40208;39.778;2.710;2023-12-07T13:43:47;101503.31;;;15.85;100.00
54308;BME280;40208;39.778;2.710;2023-12-07T13:46:33;101442.72;;;15.51;100.00
54308;BME280;40208;39.778;2.710;2023-12-07T13:49:23;101397.06;;;15.22;100.00
54308;BME280;40208;39.778;2.710;2023-12-07T13:52:08;101532.84;;;16.16;100.00
54308;BME280;40208;39.778;2.710;2023-12-07T13:54:56;101166.38;;;14.08;100.00
54308;BME280;40208;39.778;2.710;2023-12-07T13:57:49;101567.41;;;16.20;100.00
54308;BME280;40208;39.778;2.710;2023-12-07T14:00:39;101494.75;;;15.79;100.00
54308;BME280;40208;39.778;2.710;2023-12-07T14:03:27;101358.84;;;15.04;100.00
54308;BME280;40208;39.778;2.710;2023-12-07T14:06:20;101391.34;;;15.13;100.00
54308;BME280;40208;39.778;2.710;2023-12-07T14:09:08;101319.69;;;14.70;100.00
54308;BME280;40208;39.778;2.710;2023-12-07T14:11:53;101371.75;;;14.96;100.00
54308;BME280;40208;39.778;2.710;2023-12-07T14:14:46;101500.59;;;15.69;100.00
54308;BME280;40208;39.778;2.710;2023-12-07T14:17:31;101391.41;;;15.11;100.00
54308;BME280;40208;39.778;2.710;2023-12-07T14:20:22;101191.13;;;13.76;100.00
54308;BME280;40208;39.778;2.710;2023-12-07T14:23:08;101543.22;;;15.90;100.00
54308;BME280;40208;39.778;2.710;2023-12-07T14:25:53;101460.31;;;15.23;100.00
54308;BME280;40208;39.778;2.710;2023-12-07T14:28:42;101410.81;;;14.99;100.00
54308;BME280;40208;39.778;2.710;2023-12-07T14:31:30;101366.22;;;14.66;100.00